Time;durP1;ratioP1;P1;durP2;ratioP2;P2;SDS_P1;SDS_P2;PMS_P1;PMS_P2;Temp;Humidity;BMP_temperature;BMP_pressure;BME280_temperature;BME280_humidity;BME280_pressure;Samples;Min_cycle;Max_cycle;Signal;HPM_P1;HPM_P2
2022/03/08 00:01:09;;;;;;;3.72;2.65;;;3.70;99.90;;;;;;5034694;28;20099;-66
2022/03/08 00:03:35;;;;;;;3.83;2.58;;;2.70;99.90;;;;;;5034709;28;20045;-65
2022/03/08 00:06:01;;;;;;;4.68;3.00;;;2.50;99.90;;;;;;5034984;28;20072;-65
2022/03/08 00:08:27;;;;;;;5.00;3.10;;;2.50;99.90;;;;;;5017313;28;20406;-65
2022/03/08 00:10:53;;;;;;;5.20;3.35;;;2.80;99.90;;;;;;5016718;28;20045;-66
2022/03/08 00:13:19;;;;;;;4.72;3.17;;;2.60;99.90;;;;;;5034566;28;20048;-65
2022/03/08 00:15:45;;;;;;;4.00;3.17;;;3.10;99.90;;;;;;5034521;28;20049;-65
2022/03/08 00:18:10;;;;;;;5.25;3.38;;;2.50;99.90;;;;;;5034461;28;20041;-65
2022/03/08 00:20:37;;;;;;;4.18;2.95;;;2.70;99.90;;;;;;5034047;28;20379;-65
2022/03/08 00:23:03;;;;;;;5.45;3.50;;;2.30;99.90;;;;;;5033494;28;20065;-66
2022/03/08 00:25:29;;;;;;;4.55;3.55;;;2.40;99.90;;;;;;5033984;28;20551;-66
2022/03/08 00:27:56;;;;;;;6.57;3.72;;;2.40;99.90;;;;;;5034750;28;20064;-65
2022/03/08 00:30:24;;;;;;;4.35;3.30;;;2.60;99.90;;;;;;5033044;28;20085;-65
2022/03/08 00:32:51;;;;;;;5.25;3.70;;;3.80;99.90;;;;;;5034048;28;20362;-66
2022/03/08 00:35:18;;;;;;;5.40;3.90;;;2.50;99.90;;;;;;5034120;28;20057;-66
2022/03/08 00:37:47;;;;;;;5.50;4.07;;;2.50;99.90;;;;;;5032955;28;20046;-66
2022/03/08 00:40:14;;;;;;;5.28;3.80;;;3.40;99.90;;;;;;5033978;28;20143;-65
2022/03/08 00:42:39;;;;;;;5.75;3.67;;;2.20;99.90;;;;;;5033536;28;20054;-65
2022/03/08 00:45:08;;;;;;;5.20;3.40;;;2.40;99.90;;;;;;5033997;28;20041;-65
2022/03/08 00:47:41;;;;;;;5.45;4.22;;;2.20;99.90;;;;;;5032797;28;20049;-65
2022/03/08 00:50:08;;;;;;;;;;;2.10;99.90;;;;;;5034355;28;20088;-65
2022/03/08 00:52:34;;;;;;;5.90;3.90;;;2.10;99.90;;;;;;5034148;28;19920;-65
2022/03/08 00:55:00;;;;;;;6.13;4.50;;;3.00;99.90;;;;;;5032876;28;20045;-65
2022/03/08 00:57:26;;;;;;;7.82;4.45;;;2.80;99.90;;;;;;5033867;28;20045;-65
2022/03/08 00:59:52;;;;;;;6.68;4.63;;;2.20;99.90;;;;;;5032510;28;20041;-65
2022/03/08 01:02:17;;;;;;;7.30;4.82;;;2.30;99.90;;;;;;5033736;28;20124;-65
2022/03/08 01:04:43;;;;;;;6.22;4.50;;;2.00;99.90;;;;;;5033739;28;20450;-65
2022/03/08 01:07:09;;;;;;;6.05;4.15;;;2.40;99.90;;;;;;5032716;28;20363;-65
2022/03/08 01:09:35;;;;;;;5.50;4.22;;;2.20;99.90;;;;;;5016896;28;20432;-65
2022/03/08 01:12:01;;;;;;;6.30;4.45;;;2.80;99.90;;;;;;5032019;28;20133;-65
2022/03/08 01:14:27;;;;;;;5.53;4.38;;;2.20;99.90;;;;;;5016218;28;20456;-65
2022/03/08 01:16:52;;;;;;;6.22;4.60;;;2.40;99.90;;;;;;5033930;28;20365;-65
2022/03/08 01:19:18;;;;;;;7.20;4.38;;;2.90;99.90;;;;;;5033464;28;20140;-65
2022/03/08 01:21:44;;;;;;;7.45;4.32;;;2.90;99.90;;;;;;5032260;28;20053;-65
2022/03/08 01:24:10;;;;;;;5.97;4.60;;;2.90;99.90;;;;;;5016257;28;20107;-65
2022/03/08 01:26:35;;;;;;;5.55;4.70;;;2.30;99.90;;;;;;5033700;28;20052;-65
2022/03/08 01:29:03;;;;;;;5.65;4.50;;;2.20;99.90;;;;;;5033499;28;20108;-65
2022/03/08 01:31:29;;;;;;;5.10;3.97;;;2.30;99.90;;;;;;5033826;28;20077;-66
2022/03/08 01:33:54;;;;;;;8.00;5.50;;;2.20;99.90;;;;;;5037427;28;20091;-72
2022/03/08 01:36:21;;;;;;;6.10;4.72;;;2.50;99.90;;;;;;5036641;28;20045;-73
2022/03/08 01:38:46;;;;;;;5.75;5.05;;;2.20;99.90;;;;;;5038069;28;20053;-73
2022/03/08 01:41:12;;;;;;;8.40;5.15;;;2.50;99.90;;;;;;5037328;28;20056;-73
2022/03/08 01:43:38;;;;;;;7.07;4.95;;;2.00;99.90;;;;;;5036242;28;20042;-73
2022/03/08 01:46:04;;;;;;;6.90;5.07;;;2.00;99.90;;;;;;5037251;28;20041;-73
2022/03/08 01:48:30;;;;;;;6.78;5.30;;;1.90;99.90;;;;;;5036158;28;20077;-73
2022/03/08 01:50:56;;;;;;;7.65;5.15;;;2.20;99.90;;;;;;5037316;28;20124;-73
2022/03/08 01:53:22;;;;;;;6.80;5.40;;;2.40;99.90;;;;;;5037250;28;20048;-73
2022/03/08 01:55:50;;;;;;;9.52;6.13;;;2.20;99.90;;;;;;5019631;28;20053;-73
2022/03/08 01:58:16;;;;;;;9.45;5.30;;;2.20;99.90;;;;;;5037167;28;20052;-73
2022/03/08 02:00:42;;;;;;;6.88;5.30;;;2.20;99.90;;;;;;5037105;28;20060;-73
2022/03/08 02:03:08;;;;;;;7.72;5.72;;;2.40;99.90;;;;;;5020507;28;20466;-72
2022/03/08 02:05:34;;;;;;;8.43;5.53;;;2.30;99.90;;;;;;5036372;28;20057;-73
2022/03/08 02:08:00;;;;;;;8.07;5.47;;;2.40;99.90;;;;;;5037018;28;20049;-72
2022/03/08 02:10:25;;;;;;;7.50;6.03;;;1.70;99.90;;;;;;5036883;28;20367;-73
2022/03/08 02:12:51;;;;;;;10.90;5.80;;;2.00;99.90;;;;;;5036122;28;20045;-72
2022/03/08 02:15:20;;;;;;;6.97;6.28;;;1.80;99.90;;;;;;5036823;28;20077;-72
2022/03/08 02:17:46;;;;;;;8.23;5.78;;;1.80;99.90;;;;;;5036833;28;20053;-72
2022/03/08 02:20:13;;;;;;;6.57;5.50;;;2.10;99.90;;;;;;5036593;28;20064;-73
2022/03/08 02:22:40;;;;;;;8.68;6.75;;;2.00;99.90;;;;;;5036506;28;20188;-72
2022/03/08 02:25:07;;;;;;;7.43;5.85;;;1.70;99.90;;;;;;5036466;28;20056;-72
2022/03/08 02:27:34;;;;;;;9.98;6.72;;;1.80;99.90;;;;;;5019161;28;20053;-72
2022/03/08 02:29:59;;;;;;;8.35;6.03;;;2.20;99.90;;;;;;5019070;28;20042;-73
2022/03/08 02:32:25;;;;;;;9.10;6.63;;;1.90;99.90;;;;;;5036797;28;20099;-72
2022/03/08 02:34:51;;;;;;;9.27;6.70;;;1.70;99.90;;;;;;5035529;28;20049;-72
2022/03/08 02:37:17;;;;;;;7.15;6.45;;;3.10;99.90;;;;;;5035754;28;20037;-72
2022/03/08 02:39:44;;;;;;;8.90;6.90;;;2.90;99.90;;;;;;5035126;28;20048;-73
2022/03/08 02:42:09;;;;;;;8.23;5.70;;;1.80;99.90;;;;;;5036331;28;20428;-73
2022/03/08 02:44:36;;;;;;;8.68;5.75;;;1.80;99.90;;;;;;5035039;28;20041;-72
2022/03/08 02:47:05;;;;;;;8.27;6.45;;;1.40;99.90;;;;;;5018919;28;20496;-73
2022/03/08 02:49:32;;;;;;;8.27;6.10;;;1.70;99.90;;;;;;5036479;28;20045;-73
2022/03/08 02:51:58;;;;;;;7.78;6.82;;;1.60;99.90;;;;;;5036215;28;20052;-72
2022/03/08 02:54:24;;;;;;;11.63;6.72;;;1.50;99.90;;;;;;5036084;28;20058;-74
2022/03/08 02:56:51;;;;;;;7.18;6.10;;;1.60;99.90;;;;;;5036145;28;20053;-73
2022/03/08 02:59:22;;;;;;;8.57;6.70;;;1.60;99.90;;;;;;5035256;28;20053;-73
2022/03/08 03:01:48;;;;;;;8.45;6.38;;;1.60;99.90;;;;;;5036299;28;20050;-73
2022/03/08 03:04:14;;;;;;;8.85;6.63;;;1.90;99.90;;;;;;5034671;28;20055;-73
2022/03/08 03:06:40;;;;;;;8.52;6.25;;;2.50;99.90;;;;;;5035849;28;20047;-73
2022/03/08 03:09:06;;;;;;;8.57;6.78;;;2.40;99.90;;;;;;5036653;28;20041;-73
2022/03/08 03:11:32;;;;;;;9.15;6.68;;;1.20;99.90;;;;;;5035750;28;20478;-73
2022/03/08 03:13:58;;;;;;;8.32;6.45;;;1.60;99.90;;;;;;5035769;28;20045;-72
2022/03/08 03:16:23;;;;;;;9.55;6.57;;;1.20;99.90;;;;;;5035668;28;20049;-72
2022/03/08 03:18:49;;;;;;;8.27;6.60;;;1.90;99.90;;;;;;5036017;28;20077;-72
2022/03/08 03:21:15;;;;;;;7.75;6.43;;;1.30;99.90;;;;;;5017544;28;20159;-72
2022/03/08 03:23:41;;;;;;;8.65;6.63;;;1.30;99.90;;;;;;5034613;28;20062;-72
2022/03/08 03:26:06;;;;;;;8.63;7.40;;;1.20;99.90;;;;;;5036329;28;20037;-72
2022/03/08 03:28:32;;;;;;;8.77;7.65;;;1.10;99.90;;;;;;5036274;28;20049;-73
2022/03/08 03:30:58;;;;;;;9.02;6.65;;;2.50;99.90;;;;;;5034480;28;20045;-73
2022/03/08 03:33:24;;;;;;;9.32;7.00;;;1.10;99.90;;;;;;5034211;28;20057;-72
2022/03/08 03:35:49;;;;;;;10.68;7.82;;;1.30;99.90;;;;;;5017703;28;20045;-72
2022/03/08 03:38:15;;;;;;;10.18;7.50;;;1.80;99.90;;;;;;5034168;28;20038;-72
2022/03/08 03:40:40;;;;;;;8.32;6.68;;;2.10;99.90;;;;;;5033972;28;20073;-72
2022/03/08 03:43:06;;;;;;;9.35;6.82;;;2.80;99.90;;;;;;5002165;28;20045;-73
2022/03/08 03:45:32;;;;;;;11.30;7.25;;;1.50;99.90;;;;;;5035200;28;20045;-72
2022/03/08 03:47:58;;;;;;;8.63;7.72;;;1.20;99.90;;;;;;5035124;28;20041;-72
2022/03/08 03:50:23;;;;;;;8.57;7.45;;;1.00;99.90;;;;;;5034833;28;20045;-72
2022/03/08 03:52:49;;;;;;;10.60;8.05;;;1.40;99.90;;;;;;5035824;28;20069;-73
2022/03/08 03:55:15;;;;;;;9.77;7.47;;;1.30;99.90;;;;;;5034215;28;20466;-72
2022/03/08 03:57:41;;;;;;;10.02;7.07;;;1.30;99.90;;;;;;5017484;28;20132;-72
2022/03/08 04:00:09;;;;;;;10.23;7.65;;;2.00;99.90;;;;;;5033770;28;20041;-72
2022/03/08 04:02:34;;;;;;;8.57;7.35;;;1.20;99.90;;;;;;5034394;28;20075;-72
2022/03/08 04:05:00;;;;;;;9.90;7.30;;;1.00;99.90;;;;;;5017884;28;20521;-72
2022/03/08 04:07:26;;;;;;;8.98;7.30;;;0.90;99.90;;;;;;5034719;28;20448;-73
2022/03/08 04:09:51;;;;;;;10.05;7.28;;;1.30;99.90;;;;;;5034682;28;20038;-73
2022/03/08 04:12:17;;;;;;;9.65;7.03;;;1.00;99.90;;;;;;5033370;28;20132;-72
2022/03/08 04:14:43;;;;;;;9.25;7.43;;;2.30;99.90;;;;;;5034577;28;20107;-73
2022/03/08 04:17:09;;;;;;;8.50;7.32;;;1.70;99.90;;;;;;5034517;28;20045;-73
2022/03/08 04:19:34;;;;;;;10.90;7.05;;;2.50;99.90;;;;;;5032921;28;20060;-73
2022/03/08 04:22:00;;;;;;;10.02;8.10;;;1.50;99.90;;;;;;5034447;28;20053;-73
2022/03/08 04:24:27;;;;;;;8.52;7.60;;;1.70;99.90;;;;;;5016667;28;20060;-73
2022/03/08 04:26:53;;;;;;;9.98;7.63;;;0.90;99.90;;;;;;5032855;28;20493;-73
2022/03/08 04:29:18;;;;;;;11.40;8.05;;;0.80;99.90;;;;;;5033107;28;20053;-73
2022/03/08 04:31:44;;;;;;;9.80;7.22;;;0.60;99.90;;;;;;5033246;28;20053;-73
2022/03/08 04:34:10;;;;;;;10.65;7.60;;;1.00;99.90;;;;;;5033534;28;20048;-72
2022/03/08 04:36:36;;;;;;;9.23;7.22;;;0.70;99.90;;;;;;5033965;28;20049;-72
2022/03/08 04:39:02;;;;;;;10.85;7.47;;;1.70;99.90;;;;;;5034225;28;20136;-72
2022/03/08 04:41:27;;;;;;;12.18;7.50;;;0.80;99.90;;;;;;5034756;28;20111;-73
2022/03/08 04:43:53;;;;;;;10.23;8.18;;;1.50;99.90;;;;;;5033825;28;20505;-73
2022/03/08 04:46:19;;;;;;;10.23;7.65;;;0.60;99.90;;;;;;5034038;28;20049;-72
2022/03/08 04:48:45;;;;;;;10.95;8.00;;;1.70;99.90;;;;;;5032834;28;20041;-73
2022/03/08 04:51:10;;;;;;;10.23;7.47;;;0.80;99.90;;;;;;5032853;28;20050;-73
2022/03/08 04:53:36;;;;;;;12.35;7.60;;;0.80;99.90;;;;;;5033962;28;20053;-73
2022/03/08 04:56:02;;;;;;;9.65;7.65;;;0.70;99.90;;;;;;5032908;28;20053;-72
2022/03/08 04:58:28;;;;;;;9.57;7.50;;;0.70;99.90;;;;;;5032632;28;20041;-73
2022/03/08 05:00:54;;;;;;;10.40;7.88;;;0.60;99.90;;;;;;5033741;28;20103;-73
2022/03/08 05:03:19;;;;;;;9.23;7.43;;;0.80;99.90;;;;;;5032862;28;20041;-73
2022/03/08 05:05:45;;;;;;;9.82;7.32;;;0.60;99.90;;;;;;5033433;28;20056;-73
2022/03/08 05:08:11;;;;;;;9.77;8.25;;;1.00;99.90;;;;;;5032118;28;20053;-73
2022/03/08 05:10:36;;;;;;;11.10;7.80;;;0.70;99.90;;;;;;5033703;28;20176;-72
2022/03/08 05:13:03;;;;;;;11.50;7.47;;;0.80;99.90;;;;;;5033877;28;20187;-72
2022/03/08 05:15:29;;;;;;;10.32;8.05;;;1.50;99.90;;;;;;5032947;28;20116;-73
2022/03/08 05:17:55;;;;;;;12.55;8.63;;;0.90;99.90;;;;;;5033588;28;20487;-73
2022/03/08 05:20:21;;;;;;;11.88;8.20;;;1.00;99.90;;;;;;5032179;28;20052;-72
2022/03/08 05:22:47;;;;;;;11.40;8.55;;;0.60;99.90;;;;;;5034584;28;20069;-73
2022/03/08 05:25:13;;;;;;;13.23;8.80;;;0.60;99.90;;;;;;5032390;28;20053;-73
2022/03/08 05:27:40;;;;;;;11.70;8.82;;;2.80;99.90;;;;;;5033847;28;20119;-73
2022/03/08 05:30:06;;;;;;;11.90;7.75;;;1.70;99.90;;;;;;5033497;28;20038;-73
2022/03/08 05:32:32;;;;;;;12.68;8.10;;;0.60;99.90;;;;;;5033436;28;20057;-73
2022/03/08 05:34:58;;;;;;;11.98;8.35;;;0.70;99.90;;;;;;5033954;28;20052;-73
2022/03/08 05:37:23;;;;;;;12.93;9.13;;;0.80;99.90;;;;;;5032256;28;20060;-73
2022/03/08 05:39:49;;;;;;;11.55;8.18;;;0.60;99.90;;;;;;5032311;28;20475;-73
2022/03/08 05:42:15;;;;;;;11.80;8.40;;;0.90;99.90;;;;;;5033378;28;20045;-73
2022/03/08 05:44:41;;;;;;;14.00;8.82;;;0.50;99.90;;;;;;5033343;28;20088;-72
2022/03/08 05:47:07;;;;;;;14.20;8.70;;;0.60;99.90;;;;;;5032122;28;20421;-73
2022/03/08 05:49:33;;;;;;;12.57;8.93;;;1.70;99.90;;;;;;5032153;28;20051;-73
2022/03/08 05:51:58;;;;;;;13.85;8.98;;;0.50;99.90;;;;;;5032084;28;20045;-73
2022/03/08 05:54:24;;;;;;;16.48;9.00;;;0.60;99.90;;;;;;5032994;28;20041;-73
2022/03/08 05:56:50;;;;;;;12.73;8.30;;;1.60;99.90;;;;;;5032582;28;20046;-73
2022/03/08 05:59:16;;;;;;;14.13;8.77;;;0.70;99.90;;;;;;5033280;28;20038;-73
2022/03/08 06:01:42;;;;;;;14.98;9.15;;;1.90;99.90;;;;;;5033172;28;20049;-73
2022/03/08 06:04:07;;;;;;;13.43;8.55;;;0.90;99.90;;;;;;5032232;28;20099;-73
2022/03/08 06:06:33;;;;;;;13.60;8.60;;;0.80;99.90;;;;;;5032094;28;20050;-73
2022/03/08 06:08:59;;;;;;;12.57;8.50;;;0.70;99.90;;;;;;5032122;28;20049;-73
2022/03/08 06:11:24;;;;;;;14.20;9.15;;;0.70;99.90;;;;;;5031888;28;20179;-73
2022/03/08 06:13:50;;;;;;;13.50;9.70;;;1.10;99.90;;;;;;5033106;28;20474;-73
2022/03/08 06:16:16;;;;;;;12.60;8.75;;;0.90;99.90;;;;;;5031554;28;20127;-73
2022/03/08 06:18:42;;;;;;;12.80;8.93;;;0.90;99.90;;;;;;5035360;28;20057;-73
2022/03/08 06:21:07;;;;;;;14.35;8.27;;;1.30;99.90;;;;;;5037110;28;20168;-73
2022/03/08 06:23:33;;;;;;;11.95;8.38;;;0.80;99.90;;;;;;5036985;28;20405;-73
2022/03/08 06:25:59;;;;;;;13.35;8.70;;;1.20;99.90;;;;;;5035463;28;20046;-73
2022/03/08 06:28:25;;;;;;;12.52;8.43;;;0.80;99.90;;;;;;5036645;28;20037;-73
2022/03/08 06:30:50;;;;;;;13.38;8.82;;;1.00;99.90;;;;;;5036635;28;20120;-72
2022/03/08 06:33:16;;;;;;;12.88;8.40;;;2.00;99.90;;;;;;5035409;28;20056;-73
2022/03/08 06:35:42;;;;;;;13.07;8.73;;;2.00;99.90;;;;;;5035038;28;20038;-72
2022/03/08 06:38:07;;;;;;;12.02;8.13;;;1.00;99.90;;;;;;5019037;28;20099;-73
2022/03/08 06:40:33;;;;;;;13.48;8.90;;;1.30;99.90;;;;;;5035267;28;20082;-73
2022/03/08 06:42:59;;;;;;;13.60;8.73;;;1.00;99.90;;;;;;5036036;28;20056;-72
2022/03/08 06:45:24;;;;;;;16.63;9.30;;;1.00;99.90;;;;;;5035399;28;20049;-72
2022/03/08 06:47:50;;;;;;;13.10;9.30;;;1.90;99.90;;;;;;5036001;28;20049;-73
2022/03/08 06:50:16;;;;;;;12.25;8.00;;;1.20;99.90;;;;;;5035110;28;20101;-72
2022/03/08 06:52:42;;;;;;;12.55;8.98;;;0.90;99.90;;;;;;5036221;28;20103;-72
2022/03/08 06:55:09;;;;;;;14.13;8.68;;;1.30;99.90;;;;;;5036252;28;20057;-73
2022/03/08 06:57:35;;;;;;;14.00;8.20;;;1.20;99.90;;;;;;5036136;28;20053;-72
2022/03/08 07:00:00;;;;;;;14.05;9.05;;;1.10;99.90;;;;;;5035635;28;20385;-72
2022/03/08 07:02:26;;;;;;;13.40;8.35;;;1.10;99.90;;;;;;5035097;28;20045;-73
2022/03/08 07:04:52;;;;;;;15.82;9.15;;;1.30;99.90;;;;;;5034851;28;20108;-72
2022/03/08 07:07:18;;;;;;;16.85;8.32;;;2.10;99.90;;;;;;5035766;28;20045;-72
2022/03/08 07:09:43;;;;;;;13.02;8.05;;;2.50;99.90;;;;;;5035205;28;20053;-72
2022/03/08 07:12:09;;;;;;;14.95;8.98;;;1.40;99.90;;;;;;5035819;28;20132;-72
2022/03/08 07:14:36;;;;;;;13.43;8.50;;;1.50;99.90;;;;;;5036607;28;20399;-72
2022/03/08 07:17:02;;;;;;;15.55;8.95;;;1.80;99.90;;;;;;5035589;28;20080;-72
2022/03/08 07:19:28;;;;;;;13.52;7.85;;;1.70;99.90;;;;;;5018239;28;20393;-72
2022/03/08 07:21:54;;;;;;;13.65;8.43;;;2.60;99.90;;;;;;5036511;28;20061;-72
2022/03/08 07:24:20;;;;;;;14.38;8.43;;;1.60;99.90;;;;;;5034948;28;20103;-72
2022/03/08 07:26:45;;;;;;;11.77;7.68;;;2.60;99.90;;;;;;5035412;28;20429;-73
2022/03/08 07:29:11;;;;;;;14.38;8.27;;;2.80;99.90;;;;;;5033486;28;20405;-72
2022/03/08 07:31:37;;;;;;;13.05;8.63;;;2.00;99.90;;;;;;5035405;28;20041;-72
2022/03/08 07:34:03;;;;;;;13.68;8.35;;;2.10;99.90;;;;;;5033970;28;20524;-72
2022/03/08 07:36:29;;;;;;;13.65;8.25;;;1.90;99.90;;;;;;5034186;28;20049;-72
2022/03/08 07:38:54;;;;;;;12.50;8.15;;;3.00;99.90;;;;;;5034381;28;20049;-72
2022/03/08 07:41:21;;;;;;;14.82;8.55;;;1.90;99.90;;;;;;5035931;28;20045;-72
2022/03/08 07:43:47;;;;;;;11.77;7.78;;;2.20;99.90;;;;;;5035312;28;20061;-72
2022/03/08 07:46:14;;;;;;;11.75;8.55;;;3.10;99.90;;;;;;5034008;28;20473;-72
2022/03/08 07:48:40;;;;;;;12.85;7.90;;;2.00;99.90;;;;;;5034158;28;20060;-72
2022/03/08 07:51:06;;;;;;;13.50;7.85;;;3.40;99.90;;;;;;5034965;28;20458;-73
2022/03/08 07:53:31;;;;;;;11.48;7.70;;;2.20;99.90;;;;;;5034687;28;20513;-72
2022/03/08 07:55:57;;;;;;;14.88;8.27;;;2.50;99.90;;;;;;5035801;28;20037;-72
2022/03/08 07:58:23;;;;;;;12.68;7.38;;;2.40;99.90;;;;;;5034950;28;20050;-72
2022/03/08 08:00:49;;;;;;;12.40;6.90;;;3.70;99.90;;;;;;5033627;28;20045;-73
2022/03/08 08:03:15;;;;;;;10.38;6.47;;;2.50;99.90;;;;;;5034804;28;20045;-72
2022/03/08 08:05:40;;;;;;;10.68;6.10;;;2.90;99.90;;;;;;5034971;28;20080;-72
2022/03/08 08:08:07;;;;;;;11.88;7.38;;;2.70;99.90;;;;;;5034201;28;20136;-73
2022/03/08 08:10:33;;;;;;;12.27;7.13;;;2.80;99.90;;;;;;5033793;28;20095;-73
2022/03/08 08:12:59;;;;;;;12.02;6.63;;;2.90;99.90;;;;;;5033684;28;20046;-72
2022/03/08 08:15:25;;;;;;;12.50;6.70;;;3.00;99.90;;;;;;5033448;28;20045;-72
2022/03/08 08:17:51;;;;;;;11.15;6.53;;;3.00;99.90;;;;;;5034307;28;20060;-72
2022/03/08 08:20:17;;;;;;;11.18;6.60;;;3.00;99.90;;;;;;5017050;28;20037;-72
2022/03/08 08:22:43;;;;;;;10.95;6.90;;;3.00;99.90;;;;;;5033968;28;20083;-72
2022/03/08 08:25:13;;;;;;;11.70;6.90;;;3.20;99.90;;;;;;5035009;28;20049;-72
2022/03/08 08:27:39;;;;;;;14.68;7.93;;;3.30;99.90;;;;;;5033447;28;20087;-72
2022/03/08 08:30:11;;;;;;;14.65;8.57;;;3.50;99.90;;;;;;5034509;28;20124;-72
2022/03/08 08:32:38;;;;;;;10.25;7.03;;;3.40;99.90;;;;;;5033846;28;20398;-73
2022/03/08 08:35:04;;;;;;;10.25;5.72;;;4.90;99.90;;;;;;5033315;28;20184;-71
2022/03/08 08:37:30;;;;;;;12.02;7.80;;;3.60;99.90;;;;;;5017737;28;20132;-72
2022/03/08 08:39:56;;;;;;;9.63;6.47;;;3.80;99.90;;;;;;5034120;28;20053;-72
2022/03/08 08:42:22;;;;;;;9.93;6.30;;;4.20;99.90;;;;;;5033832;28;20398;-72
2022/03/08 08:44:47;;;;;;;9.32;6.05;;;4.00;99.90;;;;;;5034243;28;20128;-71
2022/03/08 08:47:13;;;;;;;8.63;5.95;;;3.70;99.90;;;;;;5032962;28;20053;-72
2022/03/08 08:49:39;;;;;;;9.32;5.60;;;4.30;99.90;;;;;;5034757;28;20045;-73
2022/03/08 08:52:05;;;;;;;12.50;7.57;;;4.20;99.90;;;;;;5032992;28;20385;-72
2022/03/08 08:54:31;;;;;;;12.40;6.07;;;4.10;99.90;;;;;;5034082;28;20143;-72
2022/03/08 08:56:57;;;;;;;12.05;6.00;;;4.20;99.90;;;;;;5033736;28;20037;-73
2022/03/08 08:59:23;;;;;;;8.15;5.93;;;4.50;99.90;;;;;;5033369;28;20042;-72
2022/03/08 09:01:48;;;;;;;8.20;5.15;;;5.10;99.90;;;;;;5033505;28;20060;-71
2022/03/08 09:04:14;;;;;;;8.95;6.10;;;4.40;99.90;;;;;;5034493;28;20056;-73
2022/03/08 09:06:41;;;;;;;8.40;4.78;;;4.60;99.90;;;;;;5016102;28;20041;-74
2022/03/08 09:09:07;;;;;;;9.77;5.43;;;4.50;99.90;;;;;;5033530;28;20049;-74
2022/03/08 09:11:33;;;;;;;8.13;5.45;;;4.70;99.90;;;;;;5033779;28;20051;-74
2022/03/08 09:13:59;;;;;;;8.82;5.38;;;4.60;99.90;;;;;;5016799;28;20132;-74
2022/03/08 09:16:26;;;;;;;7.75;4.80;;;4.70;99.90;;;;;;5032620;28;20127;-75
2022/03/08 09:18:52;;;;;;;9.27;5.45;;;4.70;99.90;;;;;;5033798;28;20072;-75
2022/03/08 09:21:17;;;;;;;9.07;6.10;;;5.00;99.90;;;;;;5033545;28;20470;-75
2022/03/08 09:23:43;;;;;;;7.85;5.18;;;5.20;99.90;;;;;;5034257;28;20049;-74
2022/03/08 09:26:09;;;;;;;9.25;5.60;;;5.00;99.90;;;;;;5034490;28;20046;-75
2022/03/08 09:28:35;;;;;;;9.70;5.35;;;5.10;99.90;;;;;;5032459;28;20056;-75
2022/03/08 09:31:01;;;;;;;7.90;6.00;;;5.10;99.90;;;;;;5033612;28;20033;-74
2022/03/08 09:33:28;;;;;;;8.70;6.25;;;5.30;99.90;;;;;;5032446;28;20124;-75
2022/03/08 09:35:54;;;;;;;10.13;5.65;;;6.30;99.90;;;;;;5032329;28;20046;-75
2022/03/08 09:38:20;;;;;;;8.68;5.05;;;5.30;99.90;;;;;;5033614;28;20049;-74
2022/03/08 09:40:47;;;;;;;10.48;6.15;;;5.80;99.90;;;;;;5032353;28;20045;-74
2022/03/08 09:43:15;;;;;;;8.35;5.35;;;5.30;99.90;;;;;;5033426;28;20482;-74
2022/03/08 09:45:41;;;;;;;7.35;4.82;;;5.50;99.90;;;;;;5032605;28;20501;-74
2022/03/08 09:48:06;;;;;;;7.40;5.40;;;5.90;99.90;;;;;;4999676;28;20462;-74
2022/03/08 09:50:32;;;;;;;8.07;4.65;;;5.50;99.90;;;;;;5031384;28;20184;-75
2022/03/08 09:52:58;;;;;;;7.20;4.35;;;5.70;99.90;;;;;;5016891;28;20386;-75
2022/03/08 09:55:25;;;;;;;8.07;4.57;;;5.90;99.90;;;;;;5018781;28;20482;-74
2022/03/08 09:57:53;;;;;;;6.18;4.35;;;5.80;99.90;;;;;;5035492;28;20115;-75
2022/03/08 10:00:21;;;;;;;5.75;4.65;;;6.50;99.90;;;;;;5035421;28;20045;-74
2022/03/08 10:02:57;;;;;;;4.65;3.92;;;5.90;99.90;;;;;;5037093;28;20142;-73
2022/03/08 10:05:28;;;;;;;5.47;3.78;;;6.00;99.90;;;;;;5035795;28;20052;-75
2022/03/08 10:08:14;;;;;;;5.95;4.28;;;6.20;99.90;;;;;;5019195;28;20053;-74
2022/03/08 10:11:00;;;;;;;4.47;3.75;;;6.20;99.80;;;;;;5018750;28;20057;-74
2022/03/08 10:13:30;;;;;;;6.38;3.65;;;6.10;99.50;;;;;;5036492;28;20045;-74
2022/03/08 10:16:24;;;;;;;6.70;3.75;;;6.60;98.40;;;;;;5036341;28;20107;-75
2022/03/08 10:18:59;;;;;;;4.28;3.30;;;6.30;97.40;;;;;;5036568;28;20049;-75
2022/03/08 10:21:32;;;;;;;5.63;3.90;;;6.80;97.70;;;;;;5035849;28;20466;-74
2022/03/08 10:24:25;;;;;;;5.30;4.40;;;6.50;97.00;;;;;;5035736;28;20049;-75
2022/03/08 10:26:55;;;;;;;5.65;3.33;;;6.50;96.30;;;;;;5030930;28;20104;-75
2022/03/08 10:29:28;;;;;;;4.38;3.05;;;6.50;95.80;;;;;;5035818;28;20050;-74
2022/03/08 10:32:16;;;;;;;6.32;3.20;;;6.70;94.40;;;;;;5036601;28;20402;-76
2022/03/08 10:34:43;;;;;;;5.70;3.33;;;6.70;94.30;;;;;;5035399;28;20122;-75
2022/03/08 10:37:17;;;;;;;4.55;3.20;;;7.00;93.80;;;;;;5019160;28;20095;-75
2022/03/08 10:39:59;;;;;;;5.75;3.72;;;7.10;93.70;;;;;;5035778;28;20520;-75
2022/03/08 10:42:30;;;;;;;5.97;3.80;;;6.90;93.90;;;;;;5037081;28;20053;-72
2022/03/08 10:45:04;;;;;;;5.70;3.67;;;6.80;93.80;;;;;;5035294;28;20045;-79
2022/03/08 10:47:45;;;;;;;5.68;3.53;;;6.90;93.10;;;;;;5035464;28;20133;-74
2022/03/08 10:50:13;;;;;;;4.50;3.00;;;7.00;92.90;;;;;;5036366;28;20143;-75
2022/03/08 10:52:41;;;;;;;3.13;2.28;;;7.00;91.70;;;;;;5036299;28;20041;-73
2022/03/08 10:55:12;;;;;;;3.65;2.53;;;7.10;91.30;;;;;;5035204;28;20053;-72
2022/03/08 10:57:40;;;;;;;3.75;2.60;;;7.10;90.50;;;;;;5036145;28;20184;-74
2022/03/08 11:00:10;;;;;;;4.90;2.92;;;8.00;89.60;;;;;;5036920;28;20057;-75
2022/03/08 11:02:49;;;;;;;6.00;2.78;;;7.20;87.50;;;;;;5019523;28;20108;-75
2022/03/08 11:05:16;;;;;;;5.97;3.00;;;7.40;86.50;;;;;;5034586;28;20103;-75
2022/03/08 11:07:42;;;;;;;4.40;2.72;;;8.10;85.40;;;;;;5035709;28;20049;-78
2022/03/08 11:10:09;;;;;;;3.35;2.35;;;7.50;84.20;;;;;;5035107;28;20573;-78
2022/03/08 11:12:37;;;;;;;6.80;2.60;;;7.40;84.60;;;;;;5035889;28;20041;-75
2022/03/08 11:15:04;;;;;;;6.03;2.70;;;7.40;85.00;;;;;;5035963;28;20052;-74
2022/03/08 11:17:31;;;;;;;4.70;2.75;;;7.50;84.60;;;;;;5034661;28;20053;-75
2022/03/08 11:19:58;;;;;;;4.65;2.55;;;7.50;84.40;;;;;;5035788;28;20041;-76
2022/03/08 11:22:24;;;;;;;3.70;2.58;;;7.50;84.30;;;;;;5036504;28;20372;-76
2022/03/08 11:24:52;;;;;;;5.78;2.58;;;7.60;84.30;;;;;;5017764;28;20148;-75
2022/03/08 11:27:18;;;;;;;3.58;2.53;;;7.60;84.40;;;;;;5018023;28;20045;-76
2022/03/08 11:29:44;;;;;;;5.10;2.83;;;7.60;83.90;;;;;;5034477;28;20401;-76
2022/03/08 11:32:19;;;;;;;4.30;2.70;;;7.80;83.60;;;;;;5018174;28;20045;-75
2022/03/08 11:34:53;;;;;;;5.30;2.70;;;7.80;82.40;;;;;;5036300;28;20048;-76
2022/03/08 11:37:21;;;;;;;3.40;2.42;;;7.80;81.50;;;;;;5034953;28;20053;-76
2022/03/08 11:40:08;;;;;;;6.07;2.80;;;7.80;81.20;;;;;;5034136;28;20053;-78
2022/03/08 11:42:37;;;;;;;3.63;2.20;;;7.90;81.20;;;;;;5021198;28;20057;-74
2022/03/08 11:45:08;;;;;;;4.28;2.53;;;7.90;80.70;;;;;;5035937;28;20095;-74
2022/03/08 11:47:42;;;;;;;4.05;3.03;;;8.00;80.50;;;;;;5035214;28;20064;-75
2022/03/08 11:50:21;;;;;;;4.32;2.67;;;8.00;80.90;;;;;;5034278;28;20049;-74
2022/03/08 11:52:52;;;;;;;4.10;2.38;;;8.10;81.20;;;;;;5033932;28;20053;-74
2022/03/08 11:55:24;;;;;;;4.40;2.55;;;8.10;80.20;;;;;;5035995;28;20050;-75
2022/03/08 11:57:56;;;;;;;4.63;2.67;;;8.20;79.80;;;;;;5034579;28;20054;-75
2022/03/08 12:00:22;;;;;;;3.80;2.53;;;8.20;80.10;;;;;;5035035;28;20052;-75
2022/03/08 12:02:51;;;;;;;3.72;1.88;;;8.20;79.70;;;;;;5034997;28;20045;-74
2022/03/08 12:05:38;;;;;;;5.95;2.58;;;8.30;80.10;;;;;;5034980;28;20047;-73
2022/03/08 12:08:27;;;;;;;2.80;1.98;;;8.30;79.40;;;;;;5033984;28;20111;-73
2022/03/08 12:11:05;;;;;;;4.68;2.30;;;8.40;79.60;;;;;;5026711;28;20062;-73
2022/03/08 12:13:36;;;;;;;3.03;2.13;;;8.40;77.70;;;;;;5033811;28;20113;-73
2022/03/08 12:16:08;;;;;;;2.88;2.10;;;8.50;77.80;;;;;;5033737;28;20061;-73
2022/03/08 12:18:39;;;;;;;4.18;2.35;;;8.50;78.00;;;;;;5033361;28;20405;-73
2022/03/08 12:21:17;;;;;;;12.65;2.47;;;8.50;78.20;;;;;;5016279;28;20061;-73
2022/03/08 12:24:08;;;;;;;3.20;2.20;;;8.60;77.40;;;;;;5033983;28;20053;-72
2022/03/08 12:26:38;;;;;;;3.30;1.90;;;8.60;78.10;;;;;;5034609;28;20501;-72
2022/03/08 12:29:12;;;;;;;3.28;1.90;;;8.70;77.20;;;;;;5033518;28;20057;-73
2022/03/08 12:31:57;;;;;;;3.08;2.05;;;8.70;77.00;;;;;;5033207;28;20064;-73
2022/03/08 12:34:35;;;;;;;3.58;2.17;;;8.80;76.20;;;;;;5035212;28;20050;-72
2022/03/08 12:37:02;;;;;;;3.38;1.80;;;8.80;75.70;;;;;;5033175;28;20045;-73
2022/03/08 12:39:43;;;;;;;3.25;2.25;;;8.80;75.30;;;;;;5034181;28;20045;-72
2022/03/08 12:42:36;;;;;;;3.20;2.20;;;8.80;75.80;;;;;;5033895;28;20506;-73
2022/03/08 12:45:20;;;;;;;4.07;2.15;;;8.90;76.40;;;;;;5002640;28;20061;-72
2022/03/08 12:47:47;;;;;;;3.00;1.88;;;8.90;76.40;;;;;;5033369;28;20041;-72
2022/03/08 12:50:22;;;;;;;3.50;1.73;;;9.00;75.40;;;;;;5034110;28;20041;-73
2022/03/08 12:52:57;;;;;;;2.45;1.20;;;9.10;73.80;;;;;;5034774;28;20057;-72
2022/03/08 12:55:26;;;;;;;2.50;1.60;;;9.10;72.90;;;;;;5033121;28;20060;-73